Time;durP1;ratioP1;P1;durP2;ratioP2;P2;SDS_P1;SDS_P2;PMS_P1;PMS_P2;Temp;Humidity;BMP_temperature;BMP_pressure;BME280_temperature;BME280_humidity;BME280_pressure;Samples;Min_cycle;Max_cycle;Signal;HPM_P1;HPM_P2
2023/06/18 00:00:12;;;;;;;13.40;9.50;;;;;;;15.70;78.97;98351.49;104949;1270;96631;-63
2023/06/18 00:02:39;;;;;;;12.50;9.10;;;;;;;15.65;79.19;98352.52;104769;1279;96899;-63
2023/06/18 00:05:07;;;;;;;12.60;9.00;;;;;;;15.66;79.30;98354.59;104794;1262;96551;-65
2023/06/18 00:07:34;;;;;;;11.30;8.80;;;;;;;15.69;79.39;98355.67;104729;1270;97837;-64
2023/06/18 00:10:03;;;;;;;12.20;9.30;;;;;;;15.73;79.44;98356.48;104990;1262;96549;-63
2023/06/18 00:12:30;;;;;;;11.70;9.00;;;;;;;15.76;79.62;98353.57;104964;1270;96506;-62
2023/06/18 00:14:57;;;;;;;16.60;11.50;;;;;;;15.80;79.73;98349.86;104944;1262;97744;-61
2023/06/18 00:17:25;;;;;;;12.10;9.30;;;;;;;15.81;79.74;98349.41;105003;1262;96590;-61
2023/06/18 00:19:52;;;;;;;13.10;9.70;;;;;;;15.85;79.70;98348.55;105012;1260;96547;-64
2023/06/18 00:22:21;;;;;;;13.90;9.80;;;;;;;15.89;79.78;98346.54;104976;1270;96477;-63
2023/06/18 00:24:51;;;;;;;15.90;10.60;;;;;;;15.87;79.78;98347.36;104996;1277;96545;-62
2023/06/18 00:27:21;;;;;;;14.40;10.70;;;;;;;15.89;79.80;98348.27;105024;1262;97868;-65
2023/06/18 00:30:00;;;;;;;14.20;11.10;;;;;;;15.89;79.80;98347.09;104696;1263;110379;-64
2023/06/18 00:32:36;;;;;;;16.10;11.10;;;;;;;15.87;79.74;98343.55;104928;1260;99342;-62
2023/06/18 00:35:18;;;;;;;18.00;12.50;;;;;;;15.80;79.97;98339.19;104967;1261;108272;-62
2023/06/18 00:37:49;;;;;;;16.00;11.80;;;;;;;15.63;80.40;98340.70;104969;1279;96566;-63
2023/06/18 00:40:16;;;;;;;16.20;11.90;;;;;;;15.51;80.37;98337.08;104973;1263;97375;-62
2023/06/18 00:42:44;;;;;;;15.50;10.80;;;;;;;15.42;80.52;98338.98;104953;1256;97743;-62
2023/06/18 00:45:12;;;;;;;13.00;10.40;;;;;;;15.39;80.53;98344.27;104992;1271;96551;-63
2023/06/18 00:47:44;;;;;;;15.10;11.30;;;;;;;15.40;80.45;98344.06;104925;1262;108683;-62
2023/06/18 00:50:18;;;;;;;16.00;11.90;;;;;;;15.38;80.31;98344.17;104963;1264;97768;-63
2023/06/18 00:52:47;;;;;;;16.70;11.50;;;;;;;15.36;80.51;98344.43;104944;1263;97741;-63
2023/06/18 00:55:20;;;;;;;19.20;13.50;;;;;;;15.39;80.52;98340.09;104672;1265;108935;-62
2023/06/18 00:57:59;;;;;;;20.10;14.30;;;;;;;15.41;80.45;98338.56;104994;1256;99150;-63
2023/06/18 01:00:28;;;;;;;18.70;13.50;;;;;;;15.39;80.57;98338.02;104966;1262;108630;-63
2023/06/18 01:02:56;;;;;;;20.60;14.40;;;;;;;15.29;80.75;98337.86;104843;1270;96739;-62
2023/06/18 01:05:24;;;;;;;21.30;14.80;;;;;;;15.26;80.93;98335.25;104987;1262;96483;-62
2023/06/18 01:07:52;;;;;;;21.70;15.40;;;;;;;15.26;80.76;98333.35;104679;1277;109867;-62
2023/06/18 01:10:20;;;;;;;25.10;18.00;;;;;;;15.22;80.78;98334.49;104979;1262;96503;-63
2023/06/18 01:12:49;;;;;;;22.60;16.40;;;;;;;15.16;80.91;98338.05;104725;1258;107610;-62
2023/06/18 01:15:18;;;;;;;23.40;16.20;;;;;;;15.10;81.00;98342.63;104682;1265;96632;-62
2023/06/18 01:17:48;;;;;;;25.70;17.00;;;;;;;15.01;81.45;98341.98;104728;1263;97166;-62
2023/06/18 01:20:18;;;;;;;22.70;15.80;;;;;;;15.01;81.61;98344.38;104977;1262;109778;-63
2023/06/18 01:22:48;;;;;;;26.30;17.20;;;;;;;14.94;81.96;98342.65;104890;1262;99092;-63
2023/06/18 01:25:18;;;;;;;18.40;14.00;;;;;;;14.87;82.40;98348.54;104897;1270;108585;-63
2023/06/18 01:27:46;;;;;;;19.80;14.40;;;;;;;14.79;82.31;98348.92;104524;1271;97936;-63
2023/06/18 01:30:14;;;;;;;21.80;16.10;;;;;;;14.83;82.48;98352.84;104803;1263;96926;-63
2023/06/18 01:32:41;;;;;;;24.70;15.80;;;;;;;14.94;82.53;98357.39;104857;1271;110902;-64
2023/06/18 01:35:15;;;;;;;22.10;16.30;;;;;;;15.02;82.45;98356.84;104913;1262;96627;-63
2023/06/18 01:38:01;;;;;;;24.20;16.00;;;;;;;15.09;82.35;98356.72;104937;1260;108526;-63
2023/06/18 01:40:34;;;;;;;23.50;15.80;;;;;;;15.13;82.40;98359.49;104936;1270;96532;-63
2023/06/18 01:43:41;;;;;;;22.80;15.90;;;;;;;15.15;82.38;98357.98;104973;1261;96620;-63
2023/06/18 01:46:13;;;;;;;24.20;15.50;;;;;;;15.15;82.32;98356.08;104921;1260;109905;-62
2023/06/18 01:48:51;;;;;;;22.00;15.50;;;;;;;15.13;82.37;98359.43;104782;1263;97544;-63
2023/06/18 01:51:20;;;;;;;23.50;15.80;;;;;;;15.10;82.39;98356.02;104921;1270;108549;-63
2023/06/18 01:53:51;;;;;;;21.90;15.10;;;;;;;15.05;82.38;98351.80;104949;1257;96530;-63
2023/06/18 01:56:19;;;;;;;20.80;15.00;;;;;;;15.01;82.49;98350.25;104667;1264;97458;-63
2023/06/18 01:58:46;;;;;;;21.70;15.40;;;;;;;14.97;82.54;98353.79;104932;1263;109293;-63
2023/06/18 02:01:14;;;;;;;21.00;14.90;;;;;;;14.96;82.52;98356.58;104958;1262;98646;-63
2023/06/18 02:03:41;;;;;;;20.90;14.60;;;;;;;14.94;82.42;98355.02;104925;1269;96543;-62
2023/06/18 02:06:09;;;;;;;22.10;16.00;;;;;;;14.91;82.75;98357.23;104877;1260;97434;-61
2023/06/18 02:08:36;;;;;;;21.70;16.00;;;;;;;14.88;83.06;98354.80;104989;1260;96552;-64
2023/06/18 02:11:03;;;;;;;21.30;15.80;;;;;;;14.84;83.50;98352.33;104876;1262;96546;-61
2023/06/18 02:13:30;;;;;;;21.80;15.40;;;;;;;14.83;83.46;98359.84;104947;1271;97846;-62
2023/06/18 02:15:57;;;;;;;20.80;14.40;;;;;;;14.83;83.22;98363.23;104897;1259;96619;-62
2023/06/18 02:18:25;;;;;;;19.10;13.60;;;;;;;14.76;83.30;98364.36;104732;1272;96637;-63
2023/06/18 02:20:52;;;;;;;19.20;13.80;;;;;;;14.73;83.59;98365.36;105001;1262;96553;-62
2023/06/18 02:23:19;;;;;;;21.30;14.60;;;;;;;14.66;83.92;98367.46;105055;1270;96541;-62
2023/06/18 02:25:47;;;;;;;21.20;14.90;;;;;;;14.65;84.08;98369.70;104981;1262;96696;-63
2023/06/18 02:28:15;;;;;;;21.50;15.00;;;;;;;14.70;84.20;98370.15;104968;1270;97357;-62
2023/06/18 02:30:43;;;;;;;19.20;14.60;;;;;;;14.73;84.26;98373.30;104947;1264;97445;-62
2023/06/18 02:33:10;;;;;;;20.10;14.40;;;;;;;14.74;84.09;98376.03;104937;1270;97826;-62
2023/06/18 02:35:37;;;;;;;23.10;15.50;;;;;;;14.75;84.28;98378.73;104939;1263;97451;-62
2023/06/18 02:38:05;;;;;;;19.20;14.30;;;;;;;14.76;84.43;98383.02;104989;1262;96626;-63
2023/06/18 02:40:32;;;;;;;21.40;15.30;;;;;;;14.76;84.55;98386.81;104998;1271;97982;-63
2023/06/18 02:42:59;;;;;;;20.90;14.70;;;;;;;14.79;84.68;98389.14;104833;1261;96642;-63
2023/06/18 02:45:26;;;;;;;21.30;13.70;;;;;;;14.80;84.68;98387.89;104935;1263;96564;-63
2023/06/18 02:47:53;;;;;;;19.40;13.70;;;;;;;14.82;84.73;98392.46;104870;1262;96565;-62
2023/06/18 02:50:21;;;;;;;19.10;14.20;;;;;;;14.85;84.80;98390.40;104729;1261;96572;-63
2023/06/18 02:52:48;;;;;;;19.40;13.90;;;;;;;14.89;84.81;98389.50;104925;1262;96654;-67
2023/06/18 02:55:16;;;;;;;19.00;13.60;;;;;;;14.91;84.88;98388.39;104622;1262;97840;-68
2023/06/18 02:57:43;;;;;;;20.60;14.10;;;;;;;14.90;85.29;98390.31;104994;1260;96630;-63
2023/06/18 03:00:12;;;;;;;19.60;13.60;;;;;;;14.89;85.38;98395.16;105035;1256;97851;-62
2023/06/18 03:02:41;;;;;;;17.90;13.90;;;;;;;14.88;85.52;98397.98;104982;1270;99497;-62
2023/06/18 03:05:09;;;;;;;19.40;13.20;;;;;;;14.90;85.54;98400.17;104983;1260;108861;-62
2023/06/18 03:07:37;;;;;;;21.40;14.80;;;;;;;14.91;85.28;98397.61;104955;1262;97858;-64
2023/06/18 03:10:05;;;;;;;20.40;15.20;;;;;;;14.90;85.32;98404.80;104700;1263;97170;-62
2023/06/18 03:12:32;;;;;;;18.80;14.20;;;;;;;14.86;85.56;98409.20;105001;1263;110502;-63
2023/06/18 03:14:59;;;;;;;21.00;15.10;;;;;;;14.91;85.45;98402.55;104912;1270;96568;-63
2023/06/18 03:17:27;;;;;;;22.00;15.60;;;;;;;14.94;85.16;98399.25;104908;1270;96564;-63
2023/06/18 03:19:54;;;;;;;20.00;14.40;;;;;;;14.95;85.07;98399.30;104634;1260;96621;-62
2023/06/18 03:22:21;;;;;;;21.80;14.60;;;;;;;14.98;85.14;98400.21;104972;1261;96636;-62
2023/06/18 03:24:49;;;;;;;20.10;14.50;;;;;;;14.97;85.27;98399.43;104979;1266;97882;-62
2023/06/18 03:27:16;;;;;;;18.30;13.20;;;;;;;14.97;85.55;98399.04;104967;1270;96628;-63
2023/06/18 03:29:44;;;;;;;19.70;14.00;;;;;;;15.07;85.32;98398.61;104954;1264;97852;-62
2023/06/18 03:32:11;;;;;;;19.80;13.90;;;;;;;15.13;85.33;98401.13;104783;1257;96739;-62
2023/06/18 03:34:42;;;;;;;19.30;14.10;;;;;;;15.08;85.34;98403.76;104789;1270;96502;-62
2023/06/18 03:37:09;;;;;;;19.20;13.90;;;;;;;15.05;85.18;98405.63;104735;1262;110916;-62
2023/06/18 03:39:36;;;;;;;19.90;14.90;;;;;;;15.05;85.29;98404.70;104874;1271;96568;-63
2023/06/18 03:42:04;;;;;;;21.20;15.00;;;;;;;15.03;85.37;98402.92;104930;1270;97456;-62
2023/06/18 03:44:31;;;;;;;17.90;14.40;;;;;;;15.04;85.49;98405.55;105006;1260;97726;-63
2023/06/18 03:46:58;;;;;;;19.20;13.60;;;;;;;15.06;85.62;98409.61;104952;1270;96576;-62
2023/06/18 03:49:26;;;;;;;19.50;13.60;;;;;;;15.05;85.49;98404.39;104952;1270;96547;-63
2023/06/18 03:51:53;;;;;;;16.80;12.90;;;;;;;15.11;85.44;98406.36;104940;1270;96694;-63
2023/06/18 03:54:20;;;;;;;21.20;14.30;;;;;;;15.13;85.76;98404.37;104777;1262;96549;-62
2023/06/18 03:56:47;;;;;;;16.10;12.40;;;;;;;15.16;85.64;98406.51;104976;1262;96539;-62
2023/06/18 03:59:14;;;;;;;16.20;12.10;;;;;;;15.21;85.49;98407.60;104819;1270;96566;-63
2023/06/18 04:01:42;;;;;;;18.20;12.60;;;;;;;15.28;85.58;98412.20;104860;1267;97029;-62
2023/06/18 04:04:09;;;;;;;18.00;11.80;;;;;;;15.27;85.35;98411.46;104864;1270;97747;-63
2023/06/18 04:06:36;;;;;;;17.60;11.80;;;;;;;15.26;85.38;98414.56;104910;1267;96560;-63
2023/06/18 04:09:03;;;;;;;17.90;11.80;;;;;;;15.23;85.54;98412.20;104978;1270;96510;-63
2023/06/18 04:11:30;;;;;;;14.20;10.90;;;;;;;15.23;85.79;98415.46;104916;1270;110922;-64
2023/06/18 04:13:58;;;;;;;13.90;10.90;;;;;;;15.32;85.76;98418.54;104662;1270;96558;-64
2023/06/18 04:16:25;;;;;;;14.40;11.30;;;;;;;15.40;85.55;98422.63;104944;1270;108663;-64
2023/06/18 04:18:52;;;;;;;15.70;11.20;;;;;;;15.44;85.36;98424.39;104710;1270;96576;-65
2023/06/18 04:21:19;;;;;;;18.60;12.20;;;;;;;15.53;85.33;98429.11;104987;1262;96579;-63
2023/06/18 04:23:46;;;;;;;15.60;11.90;;;;;;;15.59;85.40;98425.49;105009;1260;96574;-63
2023/06/18 04:26:13;;;;;;;16.20;11.50;;;;;;;15.60;85.22;98428.60;105027;1262;96548;-63
2023/06/18 04:28:40;;;;;;;15.10;11.80;;;;;;;15.59;85.29;98424.45;104967;1263;96558;-61
2023/06/18 04:31:07;;;;;;;15.80;11.20;;;;;;;15.54;85.37;98430.82;104666;1263;96553;-64
2023/06/18 04:33:34;;;;;;;14.70;11.50;;;;;;;15.54;85.34;98430.96;104967;1270;96551;-63
2023/06/18 04:36:02;;;;;;;16.50;12.00;;;;;;;15.52;85.24;98433.91;104992;1263;97839;-62
2023/06/18 04:38:29;;;;;;;15.20;10.30;;;;;;;15.54;85.14;98433.34;104838;1262;108615;-63
2023/06/18 04:40:56;;;;;;;14.30;9.70;;;;;;;15.65;84.83;98434.01;104845;1261;96568;-63
2023/06/18 04:43:23;;;;;;;14.10;10.20;;;;;;;15.69;84.49;98435.15;104918;1271;97200;-62
2023/06/18 04:45:52;;;;;;;13.30;9.90;;;;;;;15.71;84.36;98430.38;104827;1258;97452;-63
2023/06/18 04:48:19;;;;;;;13.40;9.70;;;;;;;15.75;84.17;98430.34;104943;1271;98229;-63
2023/06/18 04:50:46;;;;;;;14.60;9.60;;;;;;;15.74;84.02;98429.57;104957;1259;108690;-63
2023/06/18 04:53:13;;;;;;;13.00;10.30;;;;;;;15.77;84.02;98428.58;104785;1271;96654;-63
2023/06/18 04:55:41;;;;;;;12.30;9.60;;;;;;;15.80;83.86;98434.81;104977;1260;96551;-63
2023/06/18 04:58:08;;;;;;;12.80;9.80;;;;;;;15.79;83.69;98433.98;104849;1270;97503;-63
2023/06/18 05:00:35;;;;;;;13.80;10.60;;;;;;;15.75;83.72;98438.61;104896;1262;96566;-62
2023/06/18 05:03:04;;;;;;;15.40;10.00;;;;;;;15.73;83.76;98441.96;104925;1262;96582;-62
2023/06/18 05:05:32;;;;;;;12.90;10.20;;;;;;;15.70;83.83;98449.60;104530;1259;96608;-63
2023/06/18 05:07:59;;;;;;;14.90;10.40;;;;;;;15.72;84.38;98453.85;104934;1270;96967;-63
2023/06/18 05:10:28;;;;;;;12.90;9.50;;;;;;;15.81;84.17;98456.77;104946;1270;97450;-61
2023/06/18 05:13:03;;;;;;;14.80;9.90;;;;;;;15.95;83.79;98449.88;104651;1264;98043;-61
2023/06/18 05:15:34;;;;;;;13.80;10.20;;;;;;;16.04;83.38;98452.03;104965;1262;107861;-62
2023/06/18 05:18:04;;;;;;;14.40;9.80;;;;;;;16.13;83.23;98451.45;104919;1261;96639;-62
2023/06/18 05:20:35;;;;;;;13.20;9.80;;;;;;;16.16;82.41;98453.83;104910;1261;96581;-62
2023/06/18 05:23:03;;;;;;;14.20;10.30;;;;;;;16.23;82.31;98455.25;105062;1260;96485;-62
2023/06/18 05:25:30;;;;;;;13.80;10.30;;;;;;;16.39;82.47;98456.04;105099;1270;96565;-62
2023/06/18 05:27:57;;;;;;;15.10;10.70;;;;;;;16.53;81.40;98455.98;104940;1263;96671;-62
2023/06/18 05:30:24;;;;;;;13.20;11.20;;;;;;;16.62;80.60;98462.65;104980;1270;96508;-62
2023/06/18 05:32:51;;;;;;;13.70;10.20;;;;;;;16.78;81.80;98467.91;104962;1271;97503;-63
2023/06/18 05:35:18;;;;;;;13.50;10.40;;;;;;;17.04;81.39;98471.90;104909;1271;97304;-63
2023/06/18 05:37:45;;;;;;;13.00;10.10;;;;;;;17.29;80.76;98470.69;104686;1263;96485;-63
2023/06/18 05:40:12;;;;;;;12.10;9.00;;;;;;;17.53;79.81;98471.56;104945;1270;97853;-64
2023/06/18 05:42:39;;;;;;;13.10;9.60;;;;;;;17.74;79.25;98470.30;104790;1267;96574;-68
2023/06/18 05:45:07;;;;;;;12.40;8.80;;;;;;;17.95;78.64;98467.91;104633;1267;112610;-62
2023/06/18 05:47:34;;;;;;;12.30;9.30;;;;;;;18.12;78.10;98474.16;104748;1275;97636;-63
2023/06/18 05:50:02;;;;;;;12.20;9.30;;;;;;;18.37;77.76;98477.38;104910;1273;96680;-62
2023/06/18 05:52:29;;;;;;;12.00;9.20;;;;;;;18.55;76.84;98481.23;104931;1260;97795;-63
2023/06/18 05:54:56;;;;;;;12.90;9.60;;;;;;;18.59;75.99;98481.37;105012;1263;96527;-63
2023/06/18 05:57:23;;;;;;;11.00;8.80;;;;;;;18.60;76.52;98478.60;104950;1270;96600;-63
2023/06/18 05:59:51;;;;;;;13.10;9.60;;;;;;;18.64;76.34;98479.46;104868;1273;97852;-63
2023/06/18 06:02:18;;;;;;;11.00;8.80;;;;;;;18.67;75.99;98477.20;104983;1260;96568;-63
2023/06/18 06:04:45;;;;;;;10.50;7.80;;;;;;;18.78;75.72;98480.29;104798;1270;97438;-63
2023/06/18 06:07:12;;;;;;;10.80;7.50;;;;;;;19.02;74.28;98483.58;104953;1262;97861;-63
2023/06/18 06:09:40;;;;;;;12.10;7.50;;;;;;;19.22;74.18;98482.37;104976;1270;96696;-63
2023/06/18 06:12:08;;;;;;;9.30;6.60;;;;;;;19.42;72.79;98483.56;104894;1273;97008;-62
2023/06/18 06:14:35;;;;;;;8.40;6.90;;;;;;;19.61;71.81;98482.75;104828;1260;96638;-62
2023/06/18 06:17:02;;;;;;;11.30;6.60;;;;;;;19.72;68.95;98487.09;104869;1268;96652;-64
2023/06/18 06:19:29;;;;;;;8.90;6.50;;;;;;;19.69;70.15;98488.00;105029;1263;96537;-64
2023/06/18 06:21:56;;;;;;;8.30;6.20;;;;;;;19.91;70.21;98491.19;104850;1262;97075;-64
2023/06/18 06:24:23;;;;;;;8.80;6.60;;;;;;;20.12;69.88;98488.30;104992;1263;96565;-61
2023/06/18 06:26:50;;;;;;;7.30;6.50;;;;;;;20.37;69.30;98487.66;104932;1257;97531;-64
2023/06/18 06:29:18;;;;;;;7.50;6.20;;;;;;;20.55;67.60;98489.15;104671;1263;96713;-64
2023/06/18 06:31:45;;;;;;;7.80;6.50;;;;;;;20.72;68.35;98488.32;104922;1270;96630;-64
2023/06/18 06:34:12;;;;;;;8.30;6.20;;;;;;;21.02;67.70;98486.80;104917;1270;97090;-64
2023/06/18 06:36:39;;;;;;;9.30;7.10;;;;;;;21.23;66.92;98485.79;104964;1269;97858;-62
2023/06/18 06:39:07;;;;;;;8.00;6.40;;;;;;;21.23;65.27;98488.34;104971;1270;96527;-62
2023/06/18 06:41:34;;;;;;;6.40;5.50;;;;;;;21.20;66.20;98486.48;104736;1270;361606;-63
2023/06/18 06:44:05;;;;;;;7.20;5.40;;;;;;;21.32;65.04;98492.13;105017;1270;97778;-63
2023/06/18 06:46:32;;;;;;;6.10;5.50;;;;;;;21.30;64.40;98490.12;104925;1260;99656;-63
2023/06/18 06:48:59;;;;;;;7.30;6.30;;;;;;;21.25;63.71;98489.14;104811;1270;96581;-64
2023/06/18 06:51:26;;;;;;;7.50;5.50;;;;;;;21.35;64.66;98487.75;104799;1258;96554;-63
2023/06/18 06:53:54;;;;;;;8.50;6.80;;;;;;;21.54;64.38;98488.86;104826;1264;96643;-63
2023/06/18 06:56:21;;;;;;;8.60;7.10;;;;;;;21.73;63.80;98485.98;104760;1270;97070;-63
2023/06/18 06:58:48;;;;;;;7.30;6.00;;;;;;;21.93;63.73;98486.52;104924;1257;96645;-63
2023/06/18 07:01:21;;;;;;;11.30;6.70;;;;;;;22.11;62.84;98486.88;104916;1260;108654;-63
2023/06/18 07:03:48;;;;;;;7.60;5.90;;;;;;;22.19;62.07;98485.36;104794;1260;96477;-65
2023/06/18 07:06:16;;;;;;;5.80;5.00;;;;;;;22.45;62.25;98485.70;104794;1261;97584;-65
2023/06/18 07:08:43;;;;;;;6.20;5.20;;;;;;;22.61;59.22;98480.39;104899;1265;96566;-65
2023/06/18 07:11:10;;;;;;;5.80;5.00;;;;;;;22.62;60.03;98477.75;104985;1270;97201;-63
2023/06/18 07:13:38;;;;;;;8.40;4.80;;;;;;;22.85;59.89;98479.48;105107;1271;96706;-63
2023/06/18 07:16:05;;;;;;;6.10;5.20;;;;;;;23.05;57.91;98483.10;105101;1273;96552;-63
2023/06/18 07:18:33;;;;;;;5.20;4.70;;;;;;;22.83;56.30;98478.27;104782;1260;96641;-63
2023/06/18 07:21:00;;;;;;;9.80;5.20;;;;;;;22.88;58.31;98477.08;104916;1261;96540;-63
2023/06/18 07:23:27;;;;;;;6.80;4.90;;;;;;;23.28;58.38;98477.85;104846;1261;96639;-64
2023/06/18 07:25:54;;;;;;;5.90;5.10;;;;;;;23.59;57.08;98479.34;104893;1270;97865;-63
2023/06/18 07:28:22;;;;;;;7.00;5.80;;;;;;;23.77;55.88;98482.84;105001;1260;96543;-64
2023/06/18 07:30:49;;;;;;;5.70;4.90;;;;;;;24.01;55.90;98484.23;104900;1261;96614;-64
2023/06/18 07:33:16;;;;;;;5.90;5.10;;;;;;;24.28;54.83;98483.66;104847;1272;96554;-63
2023/06/18 07:35:43;;;;;;;5.30;4.80;;;;;;;24.41;54.77;98490.27;104951;1270;96553;-62
2023/06/18 07:38:10;;;;;;;5.10;4.60;;;;;;;24.62;54.12;98486.98;104984;1270;97298;-64
2023/06/18 07:40:38;;;;;;;6.60;5.20;;;;;;;24.94;53.73;98492.22;104951;1260;96575;-64
2023/06/18 07:43:05;;;;;;;5.20;4.50;;;;;;;25.06;52.33;98488.98;105016;1268;96552;-63
2023/06/18 07:45:33;;;;;;;5.70;4.90;;;;;;;25.13;52.40;98495.13;104978;1263;98077;-64
2023/06/18 07:48:01;;;;;;;5.20;4.70;;;;;;;25.15;51.76;98498.09;105018;1270;96566;-63
2023/06/18 07:50:28;;;;;;;6.00;4.90;;;;;;;25.16;51.75;98497.11;104918;1257;96585;-63
2023/06/18 07:52:55;;;;;;;6.30;4.90;;;;;;;24.99;51.55;98496.10;104868;1260;97455;-63
2023/06/18 07:55:22;;;;;;;5.10;4.30;;;;;;;24.97;51.95;98495.00;104956;1270;97848;-63
2023/06/18 07:57:50;;;;;;;5.00;4.60;;;;;;;25.25;51.55;98495.73;105001;1261;96581;-63
2023/06/18 08:00:18;;;;;;;6.40;4.50;;;;;;;25.56;50.77;98490.57;104892;1260;96642;-64
2023/06/18 08:02:46;;;;;;;5.20;4.60;;;;;;;25.93;50.28;98491.06;104915;1270;97205;-63
2023/06/18 08:05:13;;;;;;;5.00;4.60;;;;;;;26.13;48.99;98490.43;104999;1260;96555;-63
2023/06/18 08:07:40;;;;;;;4.70;4.10;;;;;;;26.18;49.36;98493.83;104894;1260;97214;-64
2023/06/18 08:10:08;;;;;;;5.10;4.30;;;;;;;26.14;48.57;98489.85;104838;1274;96652;-63
2023/06/18 08:12:35;;;;;;;4.40;4.00;;;;;;;25.86;48.63;98487.86;104915;1260;97848;-64
2023/06/18 08:15:03;;;;;;;5.40;4.30;;;;;;;25.83;48.88;98486.95;104902;1262;97115;-63
2023/06/18 08:17:30;;;;;;;5.10;4.50;;;;;;;25.97;49.64;98489.22;104744;1258;96671;-63
2023/06/18 08:19:57;;;;;;;4.50;4.10;;;;;;;25.91;49.28;98491.09;104752;1263;97081;-63
2023/06/18 08:22:25;;;;;;;6.60;4.20;;;;;;;25.91;49.74;98493.00;104626;1261;96620;-63
2023/06/18 08:24:53;;;;;;;4.60;4.10;;;;;;;26.34;49.27;98491.02;104694;1274;97374;-63
2023/06/18 08:27:20;;;;;;;5.00;4.50;;;;;;;26.69;46.87;98495.99;104672;1261;96617;-65
2023/06/18 08:29:47;;;;;;;5.00;4.50;;;;;;;26.83;46.85;98492.38;104804;1273;97171;-64
2023/06/18 08:32:14;;;;;;;5.90;4.90;;;;;;;26.95;46.13;98491.76;104895;1263;96565;-64
2023/06/18 08:34:46;;;;;;;4.50;4.10;;;;;;;26.82;46.16;98495.46;104848;1260;98036;-65
2023/06/18 08:37:13;;;;;;;4.30;3.90;;;;;;;26.59;46.47;98494.40;104939;1262;97687;-62
2023/06/18 08:39:40;;;;;;;5.10;4.40;;;;;;;26.39;47.15;98497.86;104872;1262;96562;-63
2023/06/18 08:42:08;;;;;;;4.90;4.40;;;;;;;26.12;47.36;98496.39;104896;1261;96540;-62
2023/06/18 08:44:35;;;;;;;4.80;4.40;;;;;;;25.76;47.55;98492.25;104883;1258;97011;-63
2023/06/18 08:47:04;;;;;;;5.70;4.70;;;;;;;25.44;48.19;98494.16;104871;1261;110893;-63
2023/06/18 08:49:32;;;;;;;5.10;4.60;;;;;;;25.23;48.93;98494.89;104877;1262;99334;-63
2023/06/18 08:52:02;;;;;;;5.50;4.90;;;;;;;25.34;49.61;98494.58;104944;1261;108600;-62
2023/06/18 08:54:34;;;;;;;5.60;4.70;;;;;;;25.66;49.03;98487.17;104896;1258;96575;-63
2023/06/18 08:57:27;;;;;;;5.10;4.30;;;;;;;26.19;48.81;98488.77;104937;1261;96555;-63
2023/06/18 08:59:57;;;;;;;5.30;4.80;;;;;;;26.29;46.54;98491.26;104859;1261;110434;-62
2023/06/18 09:02:25;;;;;;;4.90;4.40;;;;;;;26.12;46.31;98489.08;104935;1258;98709;-62
2023/06/18 09:04:54;;;;;;;5.00;4.50;;;;;;;26.07;46.72;98490.45;104725;1274;107821;-63
2023/06/18 09:07:24;;;;;;;4.90;4.20;;;;;;;26.14;47.26;98491.40;104921;1258;97453;-63
2023/06/18 09:09:52;;;;;;;5.00;4.50;;;;;;;26.61;47.01;98487.70;104975;1261;96546;-63
2023/06/18 09:12:19;;;;;;;6.00;4.60;;;;;;;27.13;46.46;98483.50;104725;1263;109730;-63
2023/06/18 09:14:47;;;;;;;4.80;4.40;;;;;;;27.33;45.65;98479.98;104674;1265;99243;-62
2023/06/18 09:17:16;;;;;;;6.00;5.00;;;;;;;27.46;45.62;98480.73;104909;1258;96527;-63
2023/06/18 09:19:44;;;;;;;5.40;4.80;;;;;;;27.42;44.96;98482.13;104913;1274;97350;-62
2023/06/18 09:22:16;;;;;;;5.10;4.60;;;;;;;27.17;44.08;98478.27;104950;1261;96552;-62
2023/06/18 09:24:44;;;;;;;5.60;5.10;;;;;;;26.98;44.02;98486.26;104851;1273;109283;-62
2023/06/18 09:27:11;;;;;;;5.70;4.50;;;;;;;26.85;45.74;98481.67;104983;1260;98617;-62
2023/06/18 09:29:41;;;;;;;5.70;4.80;;;;;;;27.46;45.30;98473.52;104632;1258;108288;-63
2023/06/18 09:32:14;;;;;;;5.40;4.90;;;;;;;27.98;45.16;98469.52;104943;1263;96546;-63
2023/06/18 09:34:43;;;;;;;6.40;4.80;;;;;;;28.31;44.29;98471.41;104956;1262;96499;-63
2023/06/18 09:37:13;;;;;;;5.30;4.70;;;;;;;28.57;43.79;98469.96;104968;1261;111121;-63
2023/06/18 09:39:40;;;;;;;4.90;4.40;;;;;;;28.98;42.89;98464.02;104673;1268;98172;-63
2023/06/18 09:42:11;;;;;;;5.20;4.70;;;;;;;29.04;42.36;98460.30;104898;1260;96555;-63
2023/06/18 09:44:39;;;;;;;5.00;4.50;;;;;;;29.20;40.33;98457.52;104959;1260;96560;-63
2023/06/18 09:47:12;;;;;;;4.40;4.00;;;;;;;29.37;41.11;98456.46;104844;1260;96552;-63
2023/06/18 09:49:42;;;;;;;4.80;4.40;;;;;;;29.74;40.19;98455.09;104497;1264;109970;-63
2023/06/18 09:52:10;;;;;;;4.70;4.10;;;;;;;29.90;38.91;98453.86;104941;1261;99275;-65
2023/06/18 09:54:39;;;;;;;4.90;4.40;;;;;;;29.80;38.76;98451.85;104645;1263;107673;-62
2023/06/18 09:57:08;;;;;;;4.70;4.30;;;;;;;29.91;38.14;98450.19;104832;1263;96715;-63
2023/06/18 09:59:36;;;;;;;5.20;4.70;;;;;;;29.40;39.13;98450.09;104998;1261;97468;-63
2023/06/18 10:02:12;;;;;;;6.40;4.80;;;;;;;28.94;39.91;98455.89;104653;1267;110345;-62
2023/06/18 10:04:40;;;;;;;5.00;4.50;;;;;;;28.57;40.72;98451.44;104888;1260;99345;-61
2023/06/18 10:07:16;;;;;;;5.00;4.50;;;;;;;28.21;41.47;98453.93;105014;1270;96565;-62
2023/06/18 10:09:46;;;;;;;4.90;4.50;;;;;;;27.88;42.00;98450.18;104545;1264;96568;-62
2023/06/18 10:12:17;;;;;;;5.40;4.40;;;;;;;28.16;42.45;98447.36;104782;1258;97836;-63
2023/06/18 10:14:46;;;;;;;4.50;4.10;;;;;;;28.66;42.03;98448.55;104642;1260;110023;-62
2023/06/18 10:17:31;;;;;;;3.70;3.30;;;;;;;28.94;41.17;98448.88;104646;1264;98891;-62
2023/06/18 10:20:06;;;;;;;4.10;3.70;;;;;;;29.13;40.02;98445.86;104951;1261;108741;-65
2023/06/18 15:08:40;;;;;;;5.60;4.20;;;;;;;25.71;44.11;98394.31;102646;1286;647764;-61
2023/06/18 15:11:08;;;;;;;4.30;3.60;;;;;;;25.82;44.08;98396.83;103916;1271;407093;-62
2023/06/18 15:13:35;;;;;;;5.80;3.90;;;;;;;25.77;44.13;98395.63;104439;1280;94207;-61
2023/06/18 15:16:02;;;;;;;4.20;3.80;;;;;;;25.73;43.96;98394.32;104442;1279;94249;-61
2023/06/18 15:18:30;;;;;;;4.20;3.80;;;;;;;25.59;43.45;98391.53;104464;1270;94284;-61
2023/06/18 15:21:07;;;;;;;4.60;3.70;;;;;;;25.38;43.79;98389.48;104103;1273;108177;-62
2023/06/18 15:23:34;;;;;;;4.50;4.10;;;;;;;25.13;44.08;98386.36;104431;1280;94260;-62
2023/06/18 15:26:02;;;;;;;4.30;3.90;;;;;;;24.96;44.68;98382.42;104337;1280;94285;-61
2023/06/18 15:28:29;;;;;;;4.00;3.70;;;;;;;24.99;44.53;98384.23;104405;1265;94289;-62
2023/06/18 15:30:56;;;;;;;4.20;3.80;;;;;;;24.88;44.80;98386.11;104061;1270;94290;-61
2023/06/18 15:33:23;;;;;;;4.20;3.70;;;;;;;24.89;45.45;98382.88;104074;1270;95356;-61
2023/06/18 15:35:51;;;;;;;3.90;3.60;;;;;;;24.74;46.05;98383.68;104072;1265;95399;-62
2023/06/18 15:38:21;;;;;;;3.70;3.40;;;;;;;24.63;46.21;98381.55;104766;1263;95203;-62
2023/06/18 15:40:48;;;;;;;6.70;4.20;;;;;;;24.65;45.89;98382.73;104650;1273;109654;-63
2023/06/18 15:43:16;;;;;;;4.10;3.70;;;;;;;24.52;45.92;98377.83;104529;1266;99985;-61
2023/06/18 15:45:43;;;;;;;5.10;4.10;;;;;;;24.32;46.54;98373.94;104446;1278;107863;-60
2023/06/18 15:48:15;;;;;;;4.20;3.80;;;;;;;24.20;46.94;98372.78;104825;1262;96014;-61
2023/06/18 15:50:42;;;;;;;5.50;4.20;;;;;;;24.17;47.11;98371.53;104809;1262;95203;-60
2023/06/18 15:53:14;;;;;;;4.20;3.80;;;;;;;24.15;47.14;98370.98;104850;1262;95220;-61
2023/06/18 15:55:46;;;;;;;7.50;6.40;;;;;;;24.14;46.77;98373.54;104824;1259;99346;-61
2023/06/18 15:58:16;;;;;;;8.20;6.50;;;;;;;24.16;46.82;98372.49;104567;1262;108111;-61
2023/06/18 16:00:44;;;;;;;5.60;5.00;;;;;;;24.15;46.10;98374.27;104785;1262;95176;-60
2023/06/18 16:03:11;;;;;;;4.40;4.00;;;;;;;24.23;46.73;98374.19;104899;1260;95591;-61
2023/06/18 16:05:39;;;;;;;4.90;3.90;;;;;;;24.40;46.76;98378.76;104797;1263;109587;-61
2023/06/18 16:08:08;;;;;;;4.50;4.10;;;;;;;24.40;46.38;98375.95;105031;1271;99128;-61